createdAt,value
2023-11-13T00:04:55.581Z,19.3
2023-11-13T00:10:47.897Z,19.3
2023-11-13T00:16:39.697Z,19.3
2023-11-13T00:22:32.409Z,19.3
2023-11-13T00:28:23.623Z,19.3
2023-11-13T00:34:16.106Z,19.3
2023-11-13T00:40:08.102Z,19.3
2023-11-13T00:46:03.425Z,19.3
2023-11-13T00:51:55.605Z,19.3
2023-11-13T00:57:47.642Z,19.3
2023-11-13T01:03:40.475Z,19.3
2023-11-13T01:09:33.129Z,19.3
2023-11-13T01:15:24.805Z,19.3
2023-11-13T01:21:15.975Z,19.3
2023-11-13T01:27:11.636Z,19.4
2023-11-13T01:33:03.715Z,19.6
2023-11-13T01:38:55.262Z,19.8
2023-11-13T01:44:47.142Z,20.1
2023-11-13T01:50:39.644Z,20.4
2023-11-13T01:56:31.550Z,20.8
2023-11-13T02:02:23.493Z,21.3
2023-11-13T02:08:15.576Z,21.8
2023-11-13T02:14:07.204Z,22.4
2023-11-13T02:19:59.272Z,23
2023-11-13T02:25:35.733Z,23.6
2023-11-13T02:31:27.342Z,24.3
2023-11-13T02:37:19.461Z,24.9
2023-11-13T02:43:10.781Z,25.4
2023-11-13T02:49:02.242Z,25.8
2023-11-13T02:54:54.980Z,25.9
2023-11-13T03:00:47.039Z,26.1
2023-11-13T03:06:39.140Z,26.2
2023-11-13T03:12:30.960Z,26.3
2023-11-13T03:18:07.035Z,26.3
2023-11-13T03:23:58.514Z,26.4
2023-11-13T03:29:35.476Z,26.4
2023-11-13T03:35:27.875Z,26.4
2023-11-13T03:41:04.163Z,26.4
2023-11-13T03:46:56.360Z,26.4
2023-11-13T03:52:48.318Z,26.4
2023-11-13T03:58:40.776Z,26.4
2023-11-13T04:04:33.639Z,26.4
2023-11-13T04:10:25.188Z,26.4
2023-11-13T04:16:16.490Z,26.4
2023-11-13T04:21:53.147Z,26.4
2023-11-13T04:27:29.884Z,26.4
2023-11-13T04:39:02.381Z,26.4
2023-11-13T04:44:54.420Z,26.4
2023-11-13T04:50:46.088Z,26.4
2023-11-13T04:56:37.752Z,26.4
2023-11-13T05:02:33.954Z,26.4
2023-11-13T05:08:26.320Z,26.4
2023-11-13T05:14:18.365Z,26.4
2023-11-13T05:20:13.094Z,26.4
2023-11-13T05:26:05.148Z,26.4
2023-11-13T05:31:57.491Z,26.4
2023-11-13T05:37:49.672Z,26.3
2023-11-13T05:43:40.933Z,26.3
2023-11-13T05:49:35.723Z,26.3
2023-11-13T05:55:28.455Z,26.3
2023-11-13T06:01:20.752Z,26.3
2023-11-13T06:07:13.515Z,26.3
2023-11-13T06:13:08.283Z,26.3
2023-11-13T06:18:59.943Z,26.3
2023-11-13T06:24:35.657Z,26.3
2023-11-13T06:30:31.150Z,26.2
2023-11-13T06:36:25.537Z,26.3
2023-11-13T06:42:02.372Z,26.2
2023-11-13T06:47:55.478Z,33.3
2023-11-13T06:53:47.658Z,34.1
2023-11-13T06:59:39.515Z,32.8
2023-11-13T07:05:33.271Z,47.8
2023-11-13T07:11:08.332Z,41.8
2023-11-13T07:17:04.311Z,42.9
2023-11-13T07:22:56.990Z,42.3
2023-11-13T07:28:48.815Z,42.8
2023-11-13T07:34:41.506Z,44.8
2023-11-13T07:40:34.179Z,44.4
2023-11-13T07:46:26.969Z,43.6
2023-11-13T07:52:36.539Z,46.1
2023-11-13T07:58:30.245Z,47.4
2023-11-13T08:04:22.065Z,48.3
2023-11-13T08:10:22.743Z,49.2
2023-11-13T08:16:15.348Z,50.1
2023-11-13T08:22:06.590Z,50.9
2023-11-13T08:28:00.014Z,51.2
2023-11-13T08:33:55.336Z,52.3
2023-11-13T08:39:46.887Z,52.9
2023-11-13T08:45:44.261Z,53.7
2023-11-13T08:51:47.310Z,54.4
2023-11-13T08:57:38.951Z,55.2
2023-11-13T09:03:17.496Z,55.9
2023-11-13T09:09:13.265Z,56.4
2023-11-13T09:15:05.476Z,54.5
2023-11-13T09:20:42.253Z,53.4
2023-11-13T09:26:34.998Z,57
2023-11-13T09:32:26.024Z,58.3
2023-11-13T09:38:17.972Z,57.5
2023-11-13T09:44:10.970Z,58.9
2023-11-13T09:50:15.890Z,59.6
2023-11-13T09:56:16.850Z,60.3
2023-11-13T10:02:10.319Z,60.9
2023-11-13T10:08:06.320Z,61.3
2023-11-13T10:13:42.628Z,61.6
2023-11-13T10:19:39.510Z,61.9
2023-11-13T10:25:30.749Z,62.5
2023-11-13T10:31:11.240Z,62.8
2023-11-13T10:37:07.023Z,63.2
2023-11-13T10:43:04.512Z,63.5
2023-11-13T10:49:00.088Z,64.1
2023-11-13T10:54:37.444Z,64.3
2023-11-13T11:00:31.979Z,64.5
2023-11-13T11:06:28.267Z,64.8
2023-11-13T11:12:25.991Z,64.8
2023-11-13T11:18:23.823Z,64.8
2023-11-13T11:24:16.797Z,64.8
2023-11-13T11:30:21.081Z,64.9
2023-11-13T11:35:58.180Z,64.4
2023-11-13T11:41:36.332Z,65.1
2023-11-13T11:47:41.601Z,65
2023-11-13T11:53:38.202Z,65.1
2023-11-13T11:59:28.683Z,65.3
2023-11-13T12:05:24.188Z,64.9
2023-11-13T12:11:16.096Z,64.9
2023-11-13T12:16:52.296Z,63
2023-11-13T12:22:59.381Z,64
2023-11-13T12:28:49.995Z,64.4
2023-11-13T12:34:42.772Z,64.1
2023-11-13T12:40:20.037Z,63.6
2023-11-13T12:46:15.964Z,63.6
2023-11-13T12:52:10.282Z,63.4
2023-11-13T12:58:02.983Z,62.8
2023-11-13T13:03:55.378Z,62.1
2023-11-13T13:09:51.802Z,61.8
2023-11-13T13:16:01.486Z,61.4
2023-11-13T13:21:54.291Z,61.1
2023-11-13T13:27:47.986Z,60.4
2023-11-13T13:33:41.610Z,59.7
2023-11-13T13:39:33.063Z,58.9
2023-11-13T13:45:24.502Z,58.1
2023-11-13T13:51:17.608Z,57.3
2023-11-13T13:57:15.067Z,56
2023-11-13T14:03:19.640Z,55.1
2023-11-13T14:09:12.878Z,51.8
2023-11-13T14:15:10.528Z,49.2
2023-11-13T14:21:19.533Z,47.7
2023-11-13T14:27:15.010Z,46.8
2023-11-13T14:32:36.589Z,46.1
2023-11-13T14:38:29.191Z,45.4
2023-11-13T14:44:08.054Z,45.1
2023-11-13T14:50:02.418Z,44.7
2023-11-13T14:56:00.242Z,44.4
2023-11-13T15:01:53.777Z,44.1
2023-11-13T15:07:47.187Z,43.9
2023-11-13T15:13:37.991Z,43.8
2023-11-13T15:19:39.493Z,43.6
2023-11-13T15:26:11.736Z,43.3
2023-11-13T15:31:50.163Z,43.1
2023-11-13T15:37:51.065Z,42.8
2023-11-13T15:43:43.204Z,42.6
2023-11-13T15:49:20.094Z,42.5
2023-11-13T15:54:57.264Z,42.3
2023-11-13T16:00:49.735Z,42.1
2023-11-13T16:06:45.943Z,41.9
2023-11-13T16:12:39.007Z,41.8
2023-11-13T16:18:32.430Z,41.7
2023-11-13T16:24:11.719Z,41.5
2023-11-13T16:30:03.885Z,40.3
2023-11-13T16:35:55.627Z,39.7
2023-11-13T16:41:30.818Z,39.8
2023-11-13T16:47:23.955Z,39.8
2023-11-13T16:53:17.769Z,39.8
2023-11-13T16:59:13.585Z,39.8
2023-11-13T17:05:07.211Z,39.7
2023-11-13T17:11:00.539Z,39.5
2023-11-13T17:16:37.075Z,39.4
2023-11-13T17:22:33.567Z,39.3
2023-11-13T17:28:12.903Z,39.2
2023-11-13T17:34:07.160Z,39.1
2023-11-13T17:39:59.577Z,38.9
2023-11-13T17:45:35.610Z,38.6
2023-11-13T17:51:12.215Z,38.5
2023-11-13T17:57:03.910Z,38.3
2023-11-13T18:02:59.322Z,38.2
2023-11-13T18:08:54.358Z,38.1
2023-11-13T18:14:31.279Z,37.9
2023-11-13T18:20:22.365Z,37.9
2023-11-13T18:26:00.025Z,37.8
2023-11-13T18:31:45.860Z,37.5
2023-11-13T18:37:37.582Z,36.9
2023-11-13T18:43:32.955Z,36.8
2023-11-13T18:49:25.895Z,36.7
2023-11-13T18:55:16.525Z,36.6
2023-11-13T19:01:08.349Z,36.4
2023-11-13T19:06:48.091Z,36.3
2023-11-13T19:12:45.265Z,35.9
2023-11-13T19:18:37.481Z,35.6
2023-11-13T19:24:30.054Z,35.4
2023-11-13T19:29:50.952Z,35.1
2023-11-13T19:35:27.473Z,35
2023-11-13T19:41:04.439Z,34.9
2023-11-13T19:46:35.468Z,34.8
2023-11-13T19:52:32.193Z,34.6
2023-11-13T19:58:16.178Z,34.5
2023-11-13T20:03:24.740Z,34.4
2023-11-13T20:08:47.098Z,34.3
2023-11-13T20:14:24.676Z,34.2
2023-11-13T20:20:28.812Z,34.1
2023-11-13T20:25:51.310Z,33.9
2023-11-13T20:31:50.414Z,33.9
2023-11-13T20:37:30.232Z,33.8
2023-11-13T20:43:05.614Z,33.7
2023-11-13T20:48:44.315Z,33.6
2023-11-13T20:54:19.655Z,33.5
2023-11-13T20:59:40.325Z,33.4
2023-11-13T21:05:04.499Z,33.3
2023-11-13T21:11:09.264Z,33.3
2023-11-13T21:17:01.506Z,33.1
2023-11-13T21:22:23.800Z,33.1
2023-11-13T21:28:15.439Z,33.1
2023-11-13T21:33:52.932Z,32.9
2023-11-13T21:39:29.486Z,32.9
2023-11-13T21:45:21.444Z,32.8
2023-11-13T21:50:42.429Z,32.8
2023-11-13T21:56:34.736Z,32.7
2023-11-13T22:02:13.150Z,32.6
2023-11-13T22:07:34.497Z,32.6
2023-11-13T22:13:26.618Z,32.5
2023-11-13T22:19:04.290Z,32.4
2023-11-13T22:24:40.460Z,32.3
2023-11-13T22:30:17.166Z,32.3
2023-11-13T22:35:54.026Z,32.2
2023-11-13T22:41:29.656Z,32.1
2023-11-13T22:47:07.035Z,32.1
2023-11-13T22:52:44.060Z,32
2023-11-13T22:58:04.818Z,31.9
2023-11-13T23:03:42.652Z,31.9
2023-11-13T23:09:19.426Z,31.8
2023-11-13T23:14:55.170Z,31.7
2023-11-13T23:20:32.559Z,31.6
2023-11-13T23:26:33.152Z,31.6
2023-11-13T23:32:09.330Z,31.5
2023-11-13T23:37:46.391Z,31.4
2023-11-13T23:43:23.340Z,31.4
2023-11-13T23:48:58.918Z,31.3
2023-11-13T23:54:35.457Z,31.3
